Time;durP1;ratioP1;P1;durP2;ratioP2;P2;SDS_P1;SDS_P2;PMS_P1;PMS_P2;Temp;Humidity;BMP_temperature;BMP_pressure;BME280_temperature;BME280_humidity;BME280_pressure;Samples;Min_cycle;Max_cycle;Signal;HPM_P1;HPM_P2
2024/01/12 00:02:25;;;;;;;13.33;6.97;;;;;;;;;;5092089;28;20224;-80
2024/01/12 00:04:53;;;;;;;6.33;5.73;;;;;;;;;;5082598;28;20196;-80
2024/01/12 00:07:20;;;;;;;6.27;4.77;;;;;;;;;;5094716;28;20586;-80
2024/01/12 00:09:46;;;;;;;10.57;6.70;;;;;;;;;;5094179;28;20216;-79
2024/01/12 00:12:13;;;;;;;10.10;7.90;;;;;;;;;;5094357;28;20205;-80
2024/01/12 00:14:40;;;;;;;11.83;7.33;;;;;;;;;;5094255;28;20208;-80
2024/01/12 00:17:07;;;;;;;9.23;7.13;;;;;;;;;;5093863;28;20204;-79
2024/01/12 00:19:34;;;;;;;12.77;8.40;;;;;;;;;;5094507;28;20211;-81
2024/01/12 00:22:02;;;;;;;12.03;7.53;;;;;;;;;;5094202;28;20208;-82
2024/01/12 00:24:28;;;;;;;12.50;7.50;;;;;;;;;;5093697;28;20232;-80
2024/01/12 00:26:55;;;;;;;6.43;5.00;;;;;;;;;;5094466;28;20200;-80
2024/01/12 00:29:22;;;;;;;6.43;5.23;;;;;;;;;;5093935;28;20220;-80
2024/01/12 00:31:49;;;;;;;7.30;5.53;;;;;;;;;;5094245;28;20647;-81
2024/01/12 00:34:16;;;;;;;8.10;6.03;;;;;;;;;;5093815;28;20211;-80
2024/01/12 00:36:42;;;;;;;7.73;5.87;;;;;;;;;;5093870;28;20207;-80
2024/01/12 00:39:11;;;;;;;9.53;7.00;;;;;;;;;;5093751;28;20219;-80
2024/01/12 00:41:38;;;;;;;7.87;5.83;;;;;;;;;;5093084;28;20612;-84
2024/01/12 00:44:06;;;;;;;8.13;5.53;;;;;;;;;;5093712;28;20236;-80
2024/01/12 00:46:34;;;;;;;8.27;6.17;;;;;;;;;;5093701;28;20225;-80
2024/01/12 00:49:00;;;;;;;9.13;5.30;;;;;;;;;;5093388;28;20228;-80
2024/01/12 00:51:27;;;;;;;7.30;5.83;;;;;;;;;;5093469;28;20262;-80
2024/01/12 00:53:54;;;;;;;6.90;5.90;;;;;;;;;;5093406;28;20678;-81
2024/01/12 00:56:22;;;;;;;9.00;5.63;;;;;;;;;;5093478;28;20670;-80
2024/01/12 00:58:49;;;;;;;7.73;5.50;;;;;;;;;;5093372;28;20222;-80
2024/01/12 01:01:17;;;;;;;6.03;5.43;;;;;;;;;;5093066;28;20197;-79
2024/01/12 01:03:43;;;;;;;8.60;5.70;;;;;;;;;;5093146;28;20255;-80
2024/01/12 01:06:13;;;;;;;8.73;6.17;;;;;;;;;;5093379;28;20325;-81
2024/01/12 01:08:40;;;;;;;7.63;6.33;;;;;;;;;;5093312;28;20211;-81
2024/01/12 01:11:07;;;;;;;7.30;5.13;;;;;;;;;;5093133;28;20566;-80
2024/01/12 01:13:36;;;;;;;6.73;5.23;;;;;;;;;;5092813;28;20204;-81
2024/01/12 01:16:03;;;;;;;6.47;5.03;;;;;;;;;;5093585;28;20197;-80
2024/01/12 01:18:30;;;;;;;14.00;9.37;;;;;;;;;;5092915;28;20288;-81
2024/01/12 01:20:57;;;;;;;8.73;7.20;;;;;;;;;;5092895;28;20228;-81
2024/01/12 01:23:24;;;;;;;9.30;6.73;;;;;;;;;;5092454;28;20235;-81
2024/01/12 01:25:50;;;;;;;18.17;14.70;;;;;;;;;;5093237;28;20218;-81
2024/01/12 01:28:17;;;;;;;12.20;8.67;;;;;;;;;;5092650;28;20236;-81
2024/01/12 01:30:45;;;;;;;6.03;5.43;;;;;;;;;;5092803;28;20204;-81
2024/01/12 01:33:12;;;;;;;13.80;5.80;;;;;;;;;;5092282;28;20219;-82
2024/01/12 01:35:39;;;;;;;6.37;4.80;;;;;;;;;;5093153;28;20257;-81
2024/01/12 01:38:06;;;;;;;12.43;9.63;;;;;;;;;;5092736;28;20227;-81
2024/01/12 01:40:33;;;;;;;14.90;11.97;;;;;;;;;;5092932;28;20215;-82
2024/01/12 01:43:07;;;;;;;15.33;9.67;;;;;;;;;;5078473;28;20239;-81
2024/01/12 01:45:37;;;;;;;12.70;8.50;;;;;;;;;;5092615;28;20210;-81
2024/01/12 01:48:06;;;;;;;10.60;7.87;;;;;;;;;;5092325;28;20204;-81
2024/01/12 01:50:34;;;;;;;8.03;6.90;;;;;;;;;;5092329;28;20211;-81
2024/01/12 01:53:01;;;;;;;7.60;5.80;;;;;;;;;;5092031;28;20239;-81
2024/01/12 01:55:29;;;;;;;8.00;5.30;;;;;;;;;;5092699;28;20597;-81
2024/01/12 01:57:56;;;;;;;9.63;7.60;;;;;;;;;;5092081;28;20205;-80
2024/01/12 02:00:23;;;;;;;10.37;8.90;;;;;;;;;;5092233;28;20200;-80
2024/01/12 02:02:50;;;;;;;12.27;8.73;;;;;;;;;;5092093;28;20200;-81
2024/01/12 02:05:21;;;;;;;9.10;7.60;;;;;;;;;;5092092;28;20261;-81
2024/01/12 02:07:47;;;;;;;9.30;8.30;;;;;;;;;;5078921;28;20211;-81
2024/01/12 02:10:14;;;;;;;10.60;6.10;;;;;;;;;;5091879;28;20767;-81
2024/01/12 02:12:41;;;;;;;14.43;11.93;;;;;;;;;;5078695;28;20208;-82
2024/01/12 02:15:09;;;;;;;14.03;10.73;;;;;;;;;;5091994;28;20673;-82
2024/01/12 02:17:37;;;;;;;9.47;7.57;;;;;;;;;;5091988;28;20381;-81
2024/01/12 02:20:04;;;;;;;6.37;5.50;;;;;;;;;;5091707;28;20257;-81
2024/01/12 02:22:33;;;;;;;7.53;5.47;;;;;;;;;;5091742;28;20197;-81
2024/01/12 02:25:01;;;;;;;5.50;4.93;;;;;;;;;;5091362;28;20322;-80
2024/01/12 02:27:28;;;;;;;7.03;4.73;;;;;;;;;;5091716;28;20231;-81
2024/01/12 02:29:57;;;;;;;5.03;4.17;;;;;;;;;;5091642;28;20204;-81
2024/01/12 02:32:23;;;;;;;5.27;4.57;;;;;;;;;;5091570;28;20204;-81
2024/01/12 02:34:51;;;;;;;4.47;3.97;;;;;;;;;;5091393;28;20686;-80
2024/01/12 02:37:17;;;;;;;4.50;4.10;;;;;;;;;;5091607;28;20196;-81
2024/01/12 02:39:47;;;;;;;8.07;6.93;;;;;;;;;;5091533;28;20282;-81
2024/01/12 02:42:14;;;;;;;17.03;12.33;;;;;;;;;;5091431;28;20236;-81
2024/01/12 02:44:41;;;;;;;29.40;21.57;;;;;;;;;;5091707;28;20744;-82
2024/01/12 02:47:08;;;;;;;21.40;15.60;;;;;;;;;;5091589;28;20215;-81
2024/01/12 02:49:35;;;;;;;12.97;9.40;;;;;;;;;;5090962;28;20215;-81
2024/01/12 02:52:02;;;;;;;8.97;7.13;;;;;;;;;;5091242;28;20201;-81
2024/01/12 02:54:29;;;;;;;9.20;5.57;;;;;;;;;;5091549;28;20208;-80
2024/01/12 02:56:57;;;;;;;5.47;4.50;;;;;;;;;;5091177;28;20196;-80
2024/01/12 02:59:24;;;;;;;4.67;4.20;;;;;;;;;;5091146;28;20192;-81
2024/01/12 03:01:51;;;;;;;5.60;4.53;;;;;;;;;;5091229;28;20208;-81
2024/01/12 03:04:17;;;;;;;5.17;4.67;;;;;;;;;;5091127;28;20220;-81
2024/01/12 03:06:44;;;;;;;5.63;4.57;;;;;;;;;;5091674;28;20204;-80
2024/01/12 03:09:14;;;;;;;5.37;3.93;;;;;;;;;;5090727;28;20200;-81
2024/01/12 03:11:41;;;;;;;5.73;4.80;;;;;;;;;;5091170;28;20569;-83
2024/01/12 03:14:12;;;;;;;5.27;4.50;;;;;;;;;;5096207;28;20709;-81
2024/01/12 03:16:38;;;;;;;6.17;4.07;;;;;;;;;;5099128;28;20224;-81
2024/01/12 03:19:05;;;;;;;7.63;4.57;;;;;;;;;;5090975;28;20204;-81
2024/01/12 03:21:32;;;;;;;5.23;4.00;;;;;;;;;;5090841;28;20233;-82
2024/01/12 03:23:59;;;;;;;3.83;3.13;;;;;;;;;;5090845;28;20223;-81
2024/01/12 03:26:25;;;;;;;4.87;3.30;;;;;;;;;;5091174;28;20731;-81
2024/01/12 03:28:52;;;;;;;3.13;2.83;;;;;;;;;;5090806;28;20235;-81
2024/01/12 03:31:21;;;;;;;2.97;2.70;;;;;;;;;;5091357;28;20627;-81
2024/01/12 03:33:48;;;;;;;3.63;3.03;;;;;;;;;;5090835;28;20235;-82
2024/01/12 03:36:16;;;;;;;5.60;3.30;;;;;;;;;;5094870;28;20207;-82
2024/01/12 03:38:43;;;;;;;4.70;3.47;;;;;;;;;;5094854;28;20623;-82
2024/01/12 03:41:12;;;;;;;3.13;2.53;;;;;;;;;;5094786;28;20212;-82
2024/01/12 03:43:39;;;;;;;4.63;3.43;;;;;;;;;;5094896;28;20288;-82
2024/01/12 03:46:06;;;;;;;16.27;9.97;;;;;;;;;;5094756;28;20211;-82
2024/01/12 03:48:39;;;;;;;3.17;2.87;;;;;;;;;;5094514;28;20220;-81
2024/01/12 03:51:06;;;;;;;4.53;3.57;;;;;;;;;;5094632;28;20615;-83
2024/01/12 03:53:33;;;;;;;9.13;5.53;;;;;;;;;;5094475;28;20692;-82
2024/01/12 03:55:59;;;;;;;9.60;6.93;;;;;;;;;;5094509;28;20215;-81
2024/01/12 03:58:26;;;;;;;8.70;6.70;;;;;;;;;;5094532;28;20269;-81
2024/01/12 04:00:53;;;;;;;7.43;6.40;;;;;;;;;;5094137;28;20219;-81
2024/01/12 04:03:20;;;;;;;5.73;4.90;;;;;;;;;;5094624;28;20585;-81
2024/01/12 04:05:48;;;;;;;5.43;3.93;;;;;;;;;;5094579;28;20580;-82
2024/01/12 04:08:15;;;;;;;6.23;4.43;;;;;;;;;;5094261;28;20204;-81
2024/01/12 04:10:41;;;;;;;4.07;3.57;;;;;;;;;;5094858;28;20209;-82
2024/01/12 04:13:08;;;;;;;3.63;3.13;;;;;;;;;;5093636;28;20204;-87
2024/01/12 04:15:36;;;;;;;80.90;36.90;;;;;;;;;;5094911;28;20208;-86
2024/01/12 04:18:04;;;;;;;36.50;15.43;;;;;;;;;;5095191;28;20215;-86
2024/01/12 04:20:31;;;;;;;16.10;9.03;;;;;;;;;;5094786;28;20203;-86
2024/01/12 04:22:59;;;;;;;17.20;11.00;;;;;;;;;;5094159;28;20207;-86
2024/01/12 04:25:26;;;;;;;14.17;9.63;;;;;;;;;;5094715;28;20224;-86
2024/01/12 04:27:52;;;;;;;11.10;8.23;;;;;;;;;;5094890;28;20632;-87
2024/01/12 04:30:19;;;;;;;14.40;7.67;;;;;;;;;;5108603;28;20580;-86
2024/01/12 04:32:46;;;;;;;12.47;7.47;;;;;;;;;;5094614;28;20196;-85
2024/01/12 04:35:13;;;;;;;9.27;6.50;;;;;;;;;;5094636;28;20211;-86
2024/01/12 04:37:39;;;;;;;7.27;6.27;;;;;;;;;;5094799;28;20208;-85
2024/01/12 04:40:08;;;;;;;7.50;5.20;;;;;;;;;;5080543;28;20204;-85
2024/01/12 04:42:38;;;;;;;5.87;3.90;;;;;;;;;;5094377;28;20207;-85
2024/01/12 04:45:06;;;;;;;3.70;3.30;;;;;;;;;;5091852;28;20228;-85
2024/01/12 04:47:32;;;;;;;4.23;3.03;;;;;;;;;;5086729;28;20265;-86
2024/01/12 04:49:59;;;;;;;3.70;2.83;;;;;;;;;;5094297;28;20208;-85
2024/01/12 04:52:26;;;;;;;17.87;8.43;;;;;;;;;;5093802;28;20215;-85
2024/01/12 04:54:53;;;;;;;12.30;8.93;;;;;;;;;;5094570;28;20623;-85
2024/01/12 04:57:21;;;;;;;6.53;5.23;;;;;;;;;;5094339;28;20205;-86
2024/01/12 04:59:48;;;;;;;5.00;3.40;;;;;;;;;;5093679;28;20615;-84
2024/01/12 05:02:15;;;;;;;5.47;3.93;;;;;;;;;;5073892;28;20205;-88
2024/01/12 05:04:41;;;;;;;3.67;3.37;;;;;;;;;;5089901;28;20232;-82
2024/01/12 05:07:08;;;;;;;3.07;2.67;;;;;;;;;;5093915;28;20218;-84
2024/01/12 05:09:37;;;;;;;3.90;3.10;;;;;;;;;;5093899;28;20586;-84
2024/01/12 05:12:05;;;;;;;4.57;3.43;;;;;;;;;;5093107;28;20270;-85
2024/01/12 05:14:36;;;;;;;4.80;4.00;;;;;;;;;;5093645;28;20240;-85
2024/01/12 05:17:03;;;;;;;5.97;4.10;;;;;;;;;;5093771;28;20283;-84
2024/01/12 05:19:30;;;;;;;3.90;2.90;;;;;;;;;;5093567;28;20208;-85
2024/01/12 05:21:57;;;;;;;3.93;3.53;;;;;;;;;;5092499;28;20200;-86
2024/01/12 05:24:23;;;;;;;4.17;3.33;;;;;;;;;;5092656;28;20702;-82
2024/01/12 05:26:51;;;;;;;4.20;3.40;;;;;;;;;;5092440;28;20581;-81
2024/01/12 05:29:18;;;;;;;5.30;3.93;;;;;;;;;;5092544;28;20232;-82
2024/01/12 05:31:46;;;;;;;5.00;3.70;;;;;;;;;;5092960;28;20209;-82
2024/01/12 05:34:13;;;;;;;4.63;3.03;;;;;;;;;;5092809;28;20207;-81
2024/01/12 05:36:40;;;;;;;4.33;3.33;;;;;;;;;;5091586;28;20200;-82
2024/01/12 05:39:07;;;;;;;3.33;3.03;;;;;;;;;;5091325;28;20201;-81
2024/01/12 05:41:32;;;;;;;14.03;9.13;;;;;;;;;;5090728;28;20215;-81
2024/01/12 05:43:59;;;;;;;19.37;12.00;;;;;;;;;;5090826;28;20200;-81
2024/01/12 05:46:26;;;;;;;15.23;9.00;;;;;;;;;;5091897;28;20214;-81
2024/01/12 05:48:54;;;;;;;15.57;10.40;;;;;;;;;;5091576;28;20200;-82
2024/01/12 05:51:21;;;;;;;14.27;10.53;;;;;;;;;;5091539;28;20200;-80
2024/01/12 05:53:48;;;;;;;15.43;11.83;;;;;;;;;;5092062;28;20196;-81
2024/01/12 05:56:15;;;;;;;9.93;8.10;;;;;;;;;;5092481;28;20211;-82
2024/01/12 05:58:41;;;;;;;10.47;7.33;;;;;;;;;;5091064;28;20212;-82
2024/01/12 06:01:08;;;;;;;47.20;34.70;;;;;;;;;;5092413;28;20203;-82
2024/01/12 06:03:38;;;;;;;93.23;47.73;;;;;;;;;;5092258;28;20200;-82
2024/01/12 06:06:06;;;;;;;108.37;54.60;;;;;;;;;;5091891;28;20234;-82
2024/01/12 06:08:33;;;;;;;58.23;32.50;;;;;;;;;;5091762;28;20211;-81
2024/01/12 06:11:00;;;;;;;30.37;18.03;;;;;;;;;;5091443;28;20673;-81
2024/01/12 06:13:27;;;;;;;14.73;9.17;;;;;;;;;;5091773;28;20207;-82
2024/01/12 06:15:53;;;;;;;14.70;9.60;;;;;;;;;;5091902;28;20205;-82
2024/01/12 06:18:20;;;;;;;14.73;10.80;;;;;;;;;;5091623;28;20230;-81
2024/01/12 06:20:47;;;;;;;13.33;8.33;;;;;;;;;;5091847;28;20207;-82
2024/01/12 06:23:16;;;;;;;28.33;20.27;;;;;;;;;;5091691;28;20253;-80
2024/01/12 06:25:43;;;;;;;46.57;27.43;;;;;;;;;;5092154;28;20226;-81
2024/01/12 06:28:10;;;;;;;40.77;25.67;;;;;;;;;;5091757;28;20228;-81
2024/01/12 06:30:37;;;;;;;18.63;13.43;;;;;;;;;;5091508;28;20680;-81
2024/01/12 06:33:04;;;;;;;12.30;9.43;;;;;;;;;;5091470;28;20197;-81
2024/01/12 06:35:31;;;;;;;14.40;10.67;;;;;;;;;;5091479;28;20201;-81
2024/01/12 06:37:58;;;;;;;8.93;5.87;;;;;;;;;;5091105;28;20693;-81
2024/01/12 06:40:26;;;;;;;5.30;4.27;;;;;;;;;;5091696;28;20200;-80
2024/01/12 06:42:54;;;;;;;6.87;4.77;;;;;;;;;;5091713;28;20200;-81
2024/01/12 06:45:20;;;;;;;7.07;5.30;;;;;;;;;;5091314;28;20251;-81
2024/01/12 06:47:47;;;;;;;8.47;6.03;;;;;;;;;;5091671;28;20266;-81
2024/01/12 06:50:14;;;;;;;7.87;5.87;;;;;;;;;;5091495;28;20200;-81
2024/01/12 06:52:41;;;;;;;10.47;6.73;;;;;;;;;;5090972;28;20211;-81
2024/01/12 06:55:08;;;;;;;5.87;4.43;;;;;;;;;;5090696;28;20205;-80
2024/01/12 06:57:39;;;;;;;8.80;5.50;;;;;;;;;;5091406;28;20227;-81
2024/01/12 07:00:07;;;;;;;10.77;9.53;;;;;;;;;;5091269;28;20636;-80
2024/01/12 07:02:37;;;;;;;8.67;7.20;;;;;;;;;;5090585;28;20200;-81
2024/01/12 07:05:05;;;;;;;9.87;5.43;;;;;;;;;;5091287;28;20224;-81
2024/01/12 07:07:32;;;;;;;8.97;7.20;;;;;;;;;;5091011;28;20196;-81
2024/01/12 07:09:59;;;;;;;9.57;6.57;;;;;;;;;;5102195;28;20205;-81
2024/01/12 07:12:26;;;;;;;11.73;7.87;;;;;;;;;;5092762;28;20197;-81
2024/01/12 07:14:54;;;;;;;8.40;6.60;;;;;;;;;;5091002;28;20208;-81
2024/01/12 07:17:21;;;;;;;9.70;6.47;;;;;;;;;;5091515;28;20204;-81
2024/01/12 07:19:48;;;;;;;13.30;9.30;;;;;;;;;;5091227;28;20279;-82
2024/01/12 07:22:15;;;;;;;20.23;11.10;;;;;;;;;;5090326;28;20208;-80
2024/01/12 07:24:41;;;;;;;16.73;12.40;;;;;;;;;;5090751;28;20227;-81
2024/01/12 07:27:08;;;;;;;10.50;6.63;;;;;;;;;;5090781;28;20208;-81
2024/01/12 07:29:38;;;;;;;6.47;5.13;;;;;;;;;;5090897;28;20224;-81
2024/01/12 07:32:08;;;;;;;4.67;3.67;;;;;;;;;;5090754;28;20201;-80
2024/01/12 07:34:37;;;;;;;3.87;3.50;;;;;;;;;;5090489;28;20585;-81
2024/01/12 07:37:05;;;;;;;3.37;2.70;;;;;;;;;;5090748;28;20708;-81
2024/01/12 07:39:32;;;;;;;27.30;17.63;;;;;;;;;;5090649;28;20200;-80
2024/01/12 07:41:59;;;;;;;25.70;14.53;;;;;;;;;;5090717;28;20208;-80
2024/01/12 07:44:26;;;;;;;9.33;6.53;;;;;;;;;;5090802;28;20207;-81
2024/01/12 07:46:52;;;;;;;8.70;6.83;;;;;;;;;;5090840;28;20193;-81
2024/01/12 07:49:20;;;;;;;6.93;5.50;;;;;;;;;;5090850;28;20265;-81
2024/01/12 07:51:47;;;;;;;9.33;7.20;;;;;;;;;;5091139;28;20202;-83
2024/01/12 07:54:14;;;;;;;10.90;8.43;;;;;;;;;;5090595;28;20212;-81
2024/01/12 07:56:41;;;;;;;9.83;6.53;;;;;;;;;;5090706;28;20208;-80
2024/01/12 07:59:08;;;;;;;11.63;8.00;;;;;;;;;;5090396;28;20701;-81
2024/01/12 08:01:40;;;;;;;6.77;5.47;;;;;;;;;;5090677;28;20705;-80
2024/01/12 08:04:07;;;;;;;7.73;6.97;;;;;;;;;;5090382;28;20211;-80
2024/01/12 08:06:35;;;;;;;6.33;4.87;;;;;;;;;;5090081;28;20228;-80
2024/01/12 08:09:02;;;;;;;10.43;7.13;;;;;;;;;;5090538;28;20204;-80
2024/01/12 08:11:29;;;;;;;12.63;7.40;;;;;;;;;;5090912;28;20204;-80
2024/01/12 08:13:56;;;;;;;5.00;4.40;;;;;;;;;;5089973;28;20205;-80
2024/01/12 08:16:22;;;;;;;4.97;3.60;;;;;;;;;;5090780;28;20207;-81
2024/01/12 08:18:49;;;;;;;5.07;4.30;;;;;;;;;;5089966;28;20201;-81
2024/01/12 08:21:16;;;;;;;6.23;5.10;;;;;;;;;;5091775;28;20227;-80
2024/01/12 08:23:44;;;;;;;8.30;6.53;;;;;;;;;;5093948;28;20642;-80
2024/01/12 08:26:14;;;;;;;6.33;4.10;;;;;;;;;;5094296;28;20224;-80
2024/01/12 08:28:41;;;;;;;22.47;10.80;;;;;;;;;;5093648;28;20256;-79
2024/01/12 08:31:08;;;;;;;11.90;6.17;;;;;;;;;;5094199;28;20215;-79
2024/01/12 08:33:38;;;;;;;6.13;3.53;;;;;;;;;;5093939;28;20197;-79
2024/01/12 08:36:05;;;;;;;9.87;3.43;;;;;;;;;;5094284;28;20257;-79
2024/01/12 08:38:32;;;;;;;9.67;5.00;;;;;;;;;;5093643;28;20196;-78
2024/01/12 08:41:00;;;;;;;11.67;8.00;;;;;;;;;;5094228;28;20249;-79
2024/01/12 08:43:27;;;;;;;7.73;5.13;;;;;;;;;;5093717;28;20211;-78
2024/01/12 08:45:54;;;;;;;5.60;4.67;;;;;;;;;;5092946;28;20235;-79
2024/01/12 08:48:20;;;;;;;8.20;4.70;;;;;;;;;;5093834;28;20204;-81
2024/01/12 08:50:47;;;;;;;3.60;2.93;;;;;;;;;;5093378;28;20199;-79
2024/01/12 08:53:14;;;;;;;4.87;3.77;;;;;;;;;;5093623;28;20211;-78
2024/01/12 08:55:41;;;;;;;12.40;6.63;;;;;;;;;;5093138;28;20212;-79
2024/01/12 08:58:12;;;;;;;69.27;34.87;;;;;;;;;;5093180;28;20218;-79
2024/01/12 09:00:39;;;;;;;11.73;7.70;;;;;;;;;;5093524;28;20204;-79
2024/01/12 09:03:06;;;;;;;7.13;4.07;;;;;;;;;;5092982;28;20211;-79
2024/01/12 09:05:32;;;;;;;3.53;3.23;;;;;;;;;;5093069;28;20252;-79
2024/01/12 09:08:01;;;;;;;3.43;2.83;;;;;;;;;;5093465;28;20204;-80
2024/01/12 09:10:28;;;;;;;9.00;6.97;;;;;;;;;;5093061;28;20555;-80
2024/01/12 09:12:55;;;;;;;25.87;13.43;;;;;;;;;;5093535;28;20196;-80
2024/01/12 09:15:23;;;;;;;12.50;11.20;;;;;;;;;;5093265;28;20204;-82
2024/01/12 09:17:50;;;;;;;11.20;7.53;;;;;;;;;;5092875;28;20234;-80
2024/01/12 09:20:18;;;;;;;10.53;7.20;;;;;;;;;;5093246;28;20580;-79
2024/01/12 09:22:45;;;;;;;7.03;6.33;;;;;;;;;;5092688;28;20204;-79
2024/01/12 09:25:12;;;;;;;6.80;4.53;;;;;;;;;;5093017;28;20226;-79
2024/01/12 09:27:39;;;;;;;4.87;3.57;;;;;;;;;;5092764;28;20232;-79
2024/01/12 09:30:07;;;;;;;7.27;3.57;;;;;;;;;;5092108;28;20257;-79
2024/01/12 09:32:37;;;;;;;6.27;2.77;;;;;;;;;;5092987;28;20548;-79
2024/01/12 09:35:04;;;;;;;5.20;3.63;;;;;;;;;;5092332;28;20204;-79
2024/01/12 09:37:31;;;;;;;10.33;7.23;;;;;;;;;;5092368;28;20678;-78
2024/01/12 09:39:57;;;;;;;5.63;3.90;;;;;;;;;;5091980;28;20241;-78
2024/01/12 09:42:25;;;;;;;5.30;3.33;;;;;;;;;;5092821;28;20204;-78
2024/01/12 09:44:52;;;;;;;6.87;4.10;;;;;;;;;;5092669;28;20204;-78
2024/01/12 09:47:19;;;;;;;4.17;3.27;;;;;;;;;;5092427;28;20723;-78
2024/01/12 09:49:47;;;;;;;11.93;7.73;;;;;;;;;;5091789;28;20254;-78
2024/01/12 09:52:14;;;;;;;5.60;4.10;;;;;;;;;;5092875;28;20265;-78
2024/01/12 09:54:41;;;;;;;9.17;4.40;;;;;;;;;;5091971;28;20207;-78
2024/01/12 09:57:09;;;;;;;7.80;5.60;;;;;;;;;;5092661;28;20200;-78
2024/01/12 09:59:38;;;;;;;4.07;3.40;;;;;;;;;;5091955;28;20640;-78
2024/01/12 10:02:05;;;;;;;7.20;4.80;;;;;;;;;;5091887;28;20247;-78
2024/01/12 10:04:32;;;;;;;6.50;4.70;;;;;;;;;;5091810;28;20279;-78
2024/01/12 10:07:00;;;;;;;30.73;19.47;;;;;;;;;;5091896;28;20231;-78
2024/01/12 10:09:28;;;;;;;18.37;12.87;;;;;;;;;;5091566;28;20206;-78
2024/01/12 10:11:55;;;;;;;10.43;7.63;;;;;;;;;;5092155;28;20681;-78
2024/01/12 10:14:22;;;;;;;5.60;3.83;;;;;;;;;;5092079;28;20216;-78
2024/01/12 10:16:56;;;;;;;4.10;3.70;;;;;;;;;;5091851;28;20593;-77
2024/01/12 10:19:23;;;;;;;6.37;4.10;;;;;;;;;;5079381;28;20207;-77
2024/01/12 10:21:49;;;;;;;4.73;3.80;;;;;;;;;;5092346;28;20201;-77
2024/01/12 10:24:20;;;;;;;5.77;4.20;;;;;;;;;;5091719;28;20211;-77
2024/01/12 10:26:47;;;;;;;6.60;4.70;;;;;;;;;;5091465;28;20669;-77
2024/01/12 10:29:14;;;;;;;5.60;4.20;;;;;;;;;;5091991;28;20231;-77
2024/01/12 10:31:43;;;;;;;4.27;3.70;;;;;;;;;;5091758;28;20265;-77
2024/01/12 10:34:12;;;;;;;4.30;3.57;;;;;;;;;;5091780;28;20200;-77
2024/01/12 10:36:39;;;;;;;7.73;5.77;;;;;;;;;;5091468;28;20196;-77
2024/01/12 10:39:08;;;;;;;5.47;4.40;;;;;;;;;;5091559;28;20207;-77
2024/01/12 10:41:36;;;;;;;4.20;3.63;;;;;;;;;;5091492;28;20196;-77
2024/01/12 10:44:05;;;;;;;5.13;3.53;;;;;;;;;;5091062;28;20582;-77
2024/01/12 10:46:34;;;;;;;4.40;3.70;;;;;;;;;;5090951;28;20604;-77
2024/01/12 10:49:07;;;;;;;7.83;3.60;;;;;;;;;;5091205;28;20689;-77
2024/01/12 10:51:38;;;;;;;4.73;3.90;;;;;;;;;;5090953;28;20664;-77
2024/01/12 10:54:09;;;;;;;4.93;3.43;;;;;;;;;;5091174;28;20307;-77
2024/01/12 10:56:37;;;;;;;4.67;3.63;;;;;;;;;;5090716;28;20249;-77
2024/01/12 10:59:05;;;;;;;4.57;3.73;;;;;;;;;;5090743;28;20210;-77
2024/01/12 11:01:34;;;;;;;3.60;3.20;;;;;;;;;;5091134;28;20205;-77
2024/01/12 11:04:01;;;;;;;5.47;4.10;;;;;;;;;;5091295;28;20212;-78
2024/01/12 11:06:29;;;;;;;4.50;3.80;;;;;;;;;;5090978;28;20231;-78
2024/01/12 11:08:56;;;;;;;4.77;4.30;;;;;;;;;;5090429;28;20203;-78
2024/01/12 11:11:25;;;;;;;5.80;4.13;;;;;;;;;;5091287;28;20207;-77
2024/01/12 11:13:54;;;;;;;7.47;4.13;;;;;;;;;;5090607;28;20195;-77
2024/01/12 11:16:21;;;;;;;5.43;4.37;;;;;;;;;;5090797;28;20258;-78
2024/01/12 11:18:48;;;;;;;5.10;3.57;;;;;;;;;;5090858;28;20207;-77
2024/01/12 11:21:24;;;;;;;7.30;3.70;;;;;;;;;;5090838;28;20211;-77
2024/01/12 11:23:50;;;;;;;7.13;3.67;;;;;;;;;;5090878;28;20199;-77
2024/01/12 11:26:18;;;;;;;6.90;4.20;;;;;;;;;;5090859;28;20219;-77
2024/01/12 11:28:45;;;;;;;7.70;4.10;;;;;;;;;;5090950;28;20247;-77
2024/01/12 11:31:28;;;;;;;5.27;4.10;;;;;;;;;;5090973;28;20704;-77
2024/01/12 11:33:59;;;;;;;5.83;3.57;;;;;;;;;;5091445;28;20211;-77
2024/01/12 11:36:29;;;;;;;6.03;3.73;;;;;;;;;;5090792;28;20208;-77
2024/01/12 11:39:00;;;;;;;9.10;4.00;;;;;;;;;;5090331;28;20200;-77
2024/01/12 11:41:30;;;;;;;3.70;3.07;;;;;;;;;;5090640;28;20580;-77
2024/01/12 11:43:58;;;;;;;5.63;3.90;;;;;;;;;;5090655;28;20207;-77
2024/01/12 11:46:29;;;;;;;5.23;3.93;;;;;;;;;;5089849;28;20224;-77
2024/01/12 11:48:56;;;;;;;6.97;3.53;;;;;;;;;;5090645;28;20200;-77
2024/01/12 11:51:23;;;;;;;4.73;3.27;;;;;;;;;;5090589;28;20589;-77
2024/01/12 11:53:56;;;;;;;6.20;3.70;;;;;;;;;;5090479;28;20207;-77
2024/01/12 11:56:23;;;;;;;4.77;4.17;;;;;;;;;;5093124;28;20212;-77
2024/01/12 11:58:51;;;;;;;6.57;4.80;;;;;;;;;;5094479;28;20261;-77
2024/01/12 12:01:18;;;;;;;6.87;4.90;;;;;;;;;;5094394;28;20689;-77
2024/01/12 12:03:49;;;;;;;9.27;4.13;;;;;;;;;;5094532;28;20208;-77
2024/01/12 12:06:16;;;;;;;7.37;4.77;;;;;;;;;;5094914;28;20311;-77
2024/01/12 12:08:43;;;;;;;5.17;3.67;;;;;;;;;;5093593;28;20595;-77
2024/01/12 12:11:13;;;;;;;5.83;4.83;;;;;;;;;;5094364;28;20592;-77
2024/01/12 12:13:41;;;;;;;6.53;5.10;;;;;;;;;;5094277;28;20203;-77
2024/01/12 12:16:09;;;;;;;5.77;4.60;;;;;;;;;;5094426;28;20204;-77
2024/01/12 12:18:36;;;;;;;7.70;4.67;;;;;;;;;;5094299;28;20211;-77
2024/01/12 12:21:04;;;;;;;5.37;4.53;;;;;;;;;;5093767;28;20204;-77
2024/01/12 12:23:31;;;;;;;6.97;4.63;;;;;;;;;;5094314;28;20203;-79
2024/01/12 12:25:58;;;;;;;10.90;6.57;;;;;;;;;;5094138;28;20200;-77
2024/01/12 12:28:25;;;;;;;7.73;5.90;;;;;;;;;;5093892;28;20239;-77
2024/01/12 12:30:53;;;;;;;7.43;5.00;;;;;;;;;;5094217;28;20426;-77
2024/01/12 12:33:19;;;;;;;8.50;5.37;;;;;;;;;;5093950;28;20281;-77
2024/01/12 12:35:46;;;;;;;10.93;6.73;;;;;;;;;;5093667;28;20197;-77
2024/01/12 12:38:14;;;;;;;8.07;5.97;;;;;;;;;;5093657;28;20207;-77
2024/01/12 12:40:44;;;;;;;6.50;4.20;;;;;;;;;;5093670;28;20200;-77
2024/01/12 12:43:12;;;;;;;10.63;7.40;;;;;;;;;;5093421;28;20299;-77
2024/01/12 12:45:38;;;;;;;6.50;4.70;;;;;;;;;;5093992;28;20590;-77
2024/01/12 12:48:06;;;;;;;6.50;5.17;;;;;;;;;;5093127;28;20232;-77
2024/01/12 12:50:33;;;;;;;19.90;11.23;;;;;;;;;;5093788;28;20200;-77
2024/01/12 12:53:00;;;;;;;14.77;7.83;;;;;;;;;;5093268;28;20283;-77
2024/01/12 12:55:28;;;;;;;23.17;12.13;;;;;;;;;;5093930;28;20200;-77
2024/01/12 12:57:55;;;;;;;16.20;8.37;;;;;;;;;;5093196;28;20200;-77
2024/01/12 13:00:22;;;;;;;11.37;6.77;;;;;;;;;;5093527;28;20224;-77
2024/01/12 13:02:48;;;;;;;13.03;7.83;;;;;;;;;;5093315;28;20208;-77
2024/01/12 13:05:17;;;;;;;12.53;8.53;;;;;;;;;;5093294;28;20207;-77
2024/01/12 13:07:44;;;;;;;7.83;6.23;;;;;;;;;;5092252;28;20282;-77
2024/01/12 13:10:14;;;;;;;8.67;6.27;;;;;;;;;;5093143;28;20200;-77
2024/01/12 13:12:42;;;;;;;7.83;5.27;;;;;;;;;;5092972;28;20200;-77
2024/01/12 13:15:12;;;;;;;10.43;6.43;;;;;;;;;;5093021;28;20200;-77
2024/01/12 13:17:39;;;;;;;15.43;7.07;;;;;;;;;;5093687;28;20232;-77
2024/01/12 13:20:07;;;;;;;23.63;13.60;;;;;;;;;;5092858;28;20200;-77
2024/01/12 13:22:36;;;;;;;27.00;15.93;;;;;;;;;;5093566;28;20258;-77
2024/01/12 13:25:04;;;;;;;26.27;14.33;;;;;;;;;;5092873;28;20283;-77
2024/01/12 13:27:31;;;;;;;10.07;6.10;;;;;;;;;;5092978;28;20236;-77
2024/01/12 13:29:59;;;;;;;19.90;10.30;;;;;;;;;;5092267;28;20261;-77
2024/01/12 13:32:26;;;;;;;28.77;13.30;;;;;;;;;;5092797;28;20207;-77
2024/01/12 13:34:52;;;;;;;39.23;20.47;;;;;;;;;;5092822;28;20200;-77
2024/01/12 13:37:19;;;;;;;20.13;12.90;;;;;;;;;;5092889;28;20277;-77
2024/01/12 13:39:46;;;;;;;33.10;18.40;;;;;;;;;;5092551;28;20645;-77
2024/01/12 13:42:13;;;;;;;18.33;12.90;;;;;;;;;;5092632;28;20643;-77
2024/01/12 13:44:40;;;;;;;19.07;11.47;;;;;;;;;;5092030;28;20207;-77
2024/01/12 13:47:09;;;;;;;7.03;6.10;;;;;;;;;;5092536;28;20434;-77
2024/01/12 13:49:35;;;;;;;23.37;15.20;;;;;;;;;;5092209;28;20192;-77
2024/01/12 13:52:03;;;;;;;24.40;13.63;;;;;;;;;;5092518;28;20211;-77
2024/01/12 13:54:30;;;;;;;11.57;7.30;;;;;;;;;;5092180;28;20207;-77
2024/01/12 13:56:58;;;;;;;13.07;9.90;;;;;;;;;;5092417;28;20208;-77
2024/01/12 13:59:24;;;;;;;27.37;13.80;;;;;;;;;;5091989;28;20201;-77
2024/01/12 14:01:52;;;;;;;23.37;12.87;;;;;;;;;;5092030;28;20203;-77
2024/01/12 14:04:20;;;;;;;9.80;7.87;;;;;;;;;;5091769;28;20571;-77
2024/01/12 14:06:47;;;;;;;11.47;6.20;;;;;;;;;;5092442;28;20231;-77
2024/01/12 14:09:15;;;;;;;10.53;6.63;;;;;;;;;;5091597;28;20219;-77
2024/01/12 14:11:42;;;;;;;11.83;9.23;;;;;;;;;;5092229;28;20582;-77
2024/01/12 14:14:08;;;;;;;10.97;7.27;;;;;;;;;;5092035;28;20196;-77
2024/01/12 14:16:35;;;;;;;9.07;6.17;;;;;;;;;;5092019;28;20200;-77
2024/01/12 14:19:02;;;;;;;8.37;5.70;;;;;;;;;;5091092;28;20257;-77
2024/01/12 14:21:32;;;;;;;9.27;6.77;;;;;;;;;;5092231;28;20200;-77
2024/01/12 14:23:59;;;;;;;8.73;6.17;;;;;;;;;;5091539;28;20211;-77
2024/01/12 14:26:26;;;;;;;7.40;4.90;;;;;;;;;;5091882;28;20261;-77
2024/01/12 14:28:55;;;;;;;5.17;4.17;;;;;;;;;;5091088;28;20308;-77
2024/01/12 14:31:22;;;;;;;17.57;11.83;;;;;;;;;;5091587;28;20230;-77
2024/01/12 14:33:48;;;;;;;15.30;9.13;;;;;;;;;;5091774;28;20587;-77
2024/01/12 14:36:15;;;;;;;15.63;8.97;;;;;;;;;;5091108;28;20256;-77
2024/01/12 14:38:45;;;;;;;18.83;13.87;;;;;;;;;;5091740;28;20304;-77